createdAt,value
2018-03-04T00:00:09.383Z,33.60
2018-03-04T00:00:31.466Z,33.60
2018-03-04T00:00:53.557Z,33.70
2018-03-04T00:01:15.620Z,33.60
2018-03-04T00:01:37.692Z,33.70
2018-03-04T00:01:59.841Z,33.70
2018-03-04T00:02:21.926Z,33.70
2018-03-04T00:02:43.988Z,33.70
2018-03-04T00:03:06.083Z,33.70
2018-03-04T00:03:29.024Z,33.70
2018-03-04T00:03:51.845Z,33.70
2018-03-04T00:04:14.735Z,33.70
2018-03-04T00:04:36.807Z,33.60
2018-03-04T00:04:59.642Z,34.00
2018-03-04T00:05:21.712Z,33.70
2018-03-04T00:05:43.778Z,33.70
2018-03-04T00:06:06.621Z,33.10
2018-03-04T00:06:28.830Z,33.60
2018-03-04T00:06:50.917Z,33.60
2018-03-04T00:07:12.945Z,33.10
2018-03-04T00:07:35.118Z,33.70
2018-03-04T00:07:57.174Z,33.70
2018-03-04T00:08:19.295Z,33.70
2018-03-04T00:08:41.393Z,33.70
2018-03-04T00:09:03.477Z,33.80
2018-03-04T00:09:25.545Z,33.80
2018-03-04T00:09:47.621Z,33.70
2018-03-04T00:10:09.708Z,33.70
2018-03-04T00:10:31.748Z,33.80
2018-03-04T00:10:53.829Z,34.00
2018-03-04T00:11:15.905Z,33.80
2018-03-04T00:11:37.966Z,33.80
2018-03-04T00:12:00.030Z,34.40
2018-03-04T00:12:22.114Z,33.70
2018-03-04T00:12:44.187Z,33.70
2018-03-04T00:13:06.253Z,33.70
2018-03-04T00:13:29.162Z,33.70
2018-03-04T00:13:51.271Z,33.70
2018-03-04T00:14:13.333Z,33.70
2018-03-04T00:14:36.187Z,33.70
2018-03-04T00:14:58.242Z,33.70
2018-03-04T00:15:20.288Z,33.70
2018-03-04T00:15:43.112Z,33.70
2018-03-04T00:16:05.323Z,33.70
2018-03-04T00:16:27.380Z,33.70
2018-03-04T00:16:50.214Z,33.80
2018-03-04T00:17:13.041Z,33.70
2018-03-04T00:17:35.873Z,33.70
2018-03-04T00:17:58.727Z,34.30
2018-03-04T00:18:21.566Z,33.70
2018-03-04T00:18:43.690Z,33.70
2018-03-04T00:19:05.839Z,33.70
2018-03-04T00:19:27.900Z,33.70
2018-03-04T00:19:49.962Z,33.70
2018-03-04T00:20:12.032Z,33.70
2018-03-04T00:20:34.089Z,33.60
2018-03-04T00:20:56.167Z,33.60
2018-03-04T00:21:18.217Z,33.60
2018-03-04T00:21:40.286Z,33.80
2018-03-04T00:22:02.362Z,33.80
2018-03-04T00:22:24.431Z,33.70
2018-03-04T00:22:47.277Z,33.60
2018-03-04T00:23:10.091Z,33.70
2018-03-04T00:23:32.144Z,33.70
2018-03-04T00:23:54.263Z,33.60
2018-03-04T00:24:16.342Z,33.60
2018-03-04T00:24:38.418Z,33.80
2018-03-04T00:25:00.479Z,33.80
2018-03-04T00:25:22.543Z,33.70
2018-03-04T00:25:44.605Z,33.70
2018-03-04T00:26:06.664Z,33.60
2018-03-04T00:26:28.706Z,33.60
2018-03-04T00:26:50.746Z,33.60
2018-03-04T00:27:12.806Z,33.60
2018-03-04T00:27:35.644Z,33.70
2018-03-04T00:27:58.487Z,33.70
2018-03-04T00:28:20.549Z,33.60
2018-03-04T00:28:42.578Z,33.60
2018-03-04T00:29:04.678Z,33.60
2018-03-04T00:29:26.867Z,33.60
2018-03-04T00:29:48.932Z,33.60
2018-03-04T00:30:10.981Z,33.60
2018-03-04T00:30:33.808Z,33.60
2018-03-04T00:30:55.871Z,33.60
2018-03-04T00:31:17.937Z,33.60
2018-03-04T00:31:40.768Z,33.60
2018-03-04T00:32:03.597Z,33.60
2018-03-04T00:32:25.664Z,33.60
2018-03-04T00:32:47.980Z,33.60
2018-03-04T00:33:10.062Z,33.00
2018-03-04T00:33:32.147Z,33.60
2018-03-04T00:33:54.210Z,33.60
2018-03-04T00:34:17.005Z,33.70
2018-03-04T00:34:39.094Z,33.60
2018-03-04T00:35:01.164Z,33.60
2018-03-04T00:35:23.253Z,33.60
2018-03-04T00:35:45.307Z,33.60
2018-03-04T00:36:07.361Z,33.60
2018-03-04T00:36:29.458Z,33.60
2018-03-04T00:36:52.296Z,33.70
2018-03-04T00:37:15.120Z,33.60
2018-03-04T00:37:37.179Z,33.60
2018-03-04T00:37:59.238Z,33.60
2018-03-04T00:38:21.351Z,33.60
2018-03-04T00:38:43.422Z,33.60
2018-03-04T00:39:05.505Z,33.60
2018-03-04T00:39:27.773Z,33.60
2018-03-04T00:39:49.845Z,33.60
2018-03-04T00:40:11.919Z,33.50
2018-03-04T00:40:33.952Z,33.60
2018-03-04T00:40:56.017Z,33.60
2018-03-04T00:41:18.088Z,33.50
2018-03-04T00:41:40.154Z,33.50
2018-03-04T00:42:02.217Z,33.50
2018-03-04T00:42:24.286Z,33.60
2018-03-04T00:42:46.345Z,33.60
2018-03-04T00:43:08.410Z,33.60
2018-03-04T00:43:31.253Z,33.60
2018-03-04T00:43:53.328Z,33.60
2018-03-04T00:44:15.416Z,33.60
2018-03-04T00:44:37.564Z,33.60
2018-03-04T00:44:59.631Z,33.60
2018-03-04T00:45:21.728Z,33.60
2018-03-04T00:45:44.800Z,33.60
2018-03-04T00:46:06.865Z,33.60
2018-03-04T00:46:28.997Z,33.60
2018-03-04T00:46:51.121Z,33.60
2018-03-04T00:47:13.189Z,34.20
2018-03-04T00:47:35.338Z,33.60
2018-03-04T00:47:57.403Z,33.50
2018-03-04T00:48:19.486Z,33.50
2018-03-04T00:48:41.639Z,33.60
2018-03-04T00:49:03.714Z,33.60
2018-03-04T00:49:25.788Z,33.60
2018-03-04T00:49:47.887Z,33.60
2018-03-04T00:50:10.006Z,33.60
2018-03-04T00:50:32.121Z,33.50
2018-03-04T00:50:54.204Z,33.60
2018-03-04T00:51:16.282Z,33.60
2018-03-04T00:51:38.348Z,33.60
2018-03-04T00:52:00.409Z,33.60
2018-03-04T00:52:22.486Z,33.50
2018-03-04T00:52:44.609Z,33.50
2018-03-04T00:53:07.535Z,33.50
2018-03-04T00:53:29.612Z,33.50
2018-03-04T00:53:51.677Z,33.50
2018-03-04T00:54:13.725Z,33.40
2018-03-04T00:54:35.777Z,34.10
2018-03-04T00:54:57.898Z,33.40
2018-03-04T00:55:19.964Z,33.40
2018-03-04T00:55:43.018Z,33.40
2018-03-04T00:56:05.095Z,33.40
2018-03-04T00:56:27.158Z,33.40
2018-03-04T00:56:49.264Z,33.50
2018-03-04T00:57:11.329Z,33.50
2018-03-04T00:57:33.390Z,33.50
2018-03-04T00:57:56.240Z,33.60
2018-03-04T00:58:18.305Z,33.60
2018-03-04T00:58:40.383Z,33.70
2018-03-04T00:59:02.453Z,33.70
2018-03-04T00:59:24.515Z,33.60
2018-03-04T00:59:46.588Z,33.60
2018-03-04T01:00:08.689Z,33.60
2018-03-04T01:00:30.761Z,33.60
2018-03-04T01:00:52.822Z,33.60
2018-03-04T01:01:14.912Z,33.60
2018-03-04T01:01:36.998Z,33.60
2018-03-04T01:01:59.856Z,33.50
2018-03-04T01:02:21.942Z,33.50
2018-03-04T01:02:44.796Z,34.10
2018-03-04T01:03:06.920Z,33.50
2018-03-04T01:03:29.990Z,33.50
2018-03-04T01:03:52.081Z,33.50
2018-03-04T01:04:14.142Z,33.60
2018-03-04T01:04:36.231Z,33.60
2018-03-04T01:04:58.310Z,33.50
2018-03-04T01:05:21.312Z,33.60
2018-03-04T01:05:43.388Z,33.50
2018-03-04T01:06:05.472Z,33.50
2018-03-04T01:06:27.630Z,33.50
2018-03-04T01:06:49.705Z,33.50
2018-03-04T01:07:11.787Z,33.50
2018-03-04T01:07:33.882Z,33.50
2018-03-04T01:07:55.984Z,34.10
2018-03-04T01:08:18.812Z,33.60
2018-03-04T01:08:41.651Z,33.50
2018-03-04T01:09:04.485Z,33.50
2018-03-04T01:09:27.338Z,33.50
2018-03-04T01:09:49.559Z,33.50
2018-03-04T01:10:11.653Z,33.50
2018-03-04T01:10:34.528Z,34.10
2018-03-04T01:10:56.610Z,33.40
2018-03-04T01:11:19.442Z,33.50
2018-03-04T01:11:42.267Z,34.00
2018-03-04T01:12:04.334Z,33.50
2018-03-04T01:12:26.412Z,33.40
2018-03-04T01:12:48.489Z,33.40
2018-03-04T01:13:10.558Z,33.40
2018-03-04T01:13:33.387Z,33.40
2018-03-04T01:13:56.217Z,33.50
2018-03-04T01:14:18.298Z,33.40
2018-03-04T01:14:40.418Z,33.50
2018-03-04T01:15:02.498Z,33.40
2018-03-04T01:15:24.682Z,33.40
2018-03-04T01:15:46.774Z,33.40
2018-03-04T01:16:08.887Z,33.40
2018-03-04T01:16:30.969Z,33.40
2018-03-04T01:16:53.047Z,33.40
2018-03-04T01:17:15.133Z,33.40
2018-03-04T01:17:37.208Z,33.40
2018-03-04T01:18:00.066Z,33.50
2018-03-04T01:18:22.139Z,33.40
2018-03-04T01:18:44.218Z,33.50
2018-03-04T01:19:06.298Z,33.40
2018-03-04T01:19:29.134Z,33.40
2018-03-04T01:19:51.973Z,33.40
2018-03-04T01:20:14.805Z,33.40
2018-03-04T01:20:37.654Z,33.40
2018-03-04T01:20:59.771Z,33.40
2018-03-04T01:21:21.969Z,33.40
2018-03-04T01:21:44.793Z,33.50
2018-03-04T01:22:06.999Z,33.50
2018-03-04T01:22:29.115Z,33.50
2018-03-04T01:22:51.195Z,33.40
2018-03-04T01:23:13.362Z,33.40
2018-03-04T01:23:35.653Z,33.40
2018-03-04T01:23:57.730Z,33.40
2018-03-04T01:24:20.581Z,33.40
2018-03-04T01:24:42.674Z,33.40
2018-03-04T01:25:05.514Z,33.50
2018-03-04T01:25:28.435Z,33.40
2018-03-04T01:25:50.501Z,33.40
2018-03-04T01:26:12.591Z,33.30
2018-03-04T01:26:35.427Z,33.30
2018-03-04T01:26:58.260Z,33.30
2018-03-04T01:27:21.093Z,33.30
2018-03-04T01:27:43.950Z,33.30
2018-03-04T01:28:06.009Z,33.30
2018-03-04T01:28:28.068Z,33.30
2018-03-04T01:28:50.921Z,33.40
2018-03-04T01:29:12.997Z,33.30
2018-03-04T01:29:35.089Z,33.40
2018-03-04T01:29:57.171Z,33.40
2018-03-04T01:30:19.289Z,33.40
2018-03-04T01:30:41.369Z,33.40
2018-03-04T01:31:03.524Z,33.30
2018-03-04T01:31:25.652Z,33.40
2018-03-04T01:31:47.719Z,33.40
2018-03-04T01:32:09.789Z,33.50
2018-03-04T01:32:31.867Z,33.50
2018-03-04T01:32:53.930Z,33.40
2018-03-04T01:33:16.009Z,33.40
2018-03-04T01:33:38.842Z,33.80
2018-03-04T01:34:00.897Z,33.40
2018-03-04T01:34:22.987Z,33.40
2018-03-04T01:34:45.819Z,33.40
2018-03-04T01:35:08.652Z,33.30
2018-03-04T01:35:31.568Z,34.00
2018-03-04T01:35:53.628Z,33.30
2018-03-04T01:36:15.713Z,33.30
2018-03-04T01:36:37.805Z,33.30
2018-03-04T01:36:59.905Z,33.30
2018-03-04T01:37:21.975Z,33.30
2018-03-04T01:37:44.813Z,33.40
2018-03-04T01:38:07.642Z,33.30
2018-03-04T01:38:29.749Z,33.30
2018-03-04T01:38:51.817Z,33.30
2018-03-04T01:39:13.922Z,33.30
2018-03-04T01:39:36.030Z,33.30
2018-03-04T01:39:58.850Z,33.40
2018-03-04T01:40:22.434Z,33.30
2018-03-04T01:40:44.509Z,33.30
2018-03-04T01:41:06.615Z,33.30
2018-03-04T01:41:28.665Z,33.30
2018-03-04T01:41:51.525Z,33.30
2018-03-04T01:42:13.596Z,33.30
2018-03-04T01:42:35.674Z,33.30
2018-03-04T01:42:57.745Z,33.30
2018-03-04T01:43:20.583Z,34.10
2018-03-04T01:43:43.411Z,33.50
2018-03-04T01:44:05.472Z,33.40
2018-03-04T01:44:27.535Z,33.40
2018-03-04T01:44:49.600Z,33.40
2018-03-04T01:45:11.670Z,33.40
2018-03-04T01:45:33.806Z,33.30
2018-03-04T01:45:56.666Z,33.90
2018-03-04T01:46:18.736Z,33.30
2018-03-04T01:46:40.806Z,33.30
2018-03-04T01:47:02.930Z,33.30
2018-03-04T01:47:25.013Z,33.20
2018-03-04T01:47:47.848Z,33.20
2018-03-04T01:48:10.688Z,33.20
2018-03-04T01:48:33.606Z,33.20
2018-03-04T01:48:55.768Z,33.20
2018-03-04T01:49:17.828Z,33.10
2018-03-04T01:49:39.880Z,33.10
2018-03-04T01:50:02.706Z,33.20
2018-03-04T01:50:24.778Z,33.80
2018-03-04T01:50:46.946Z,33.20
2018-03-04T01:51:09.016Z,33.20
2018-03-04T01:51:31.164Z,32.50
2018-03-04T01:51:53.226Z,33.10
2018-03-04T01:52:15.315Z,33.10
2018-03-04T01:52:37.453Z,33.10
2018-03-04T01:53:00.278Z,33.20
2018-03-04T01:53:23.294Z,33.20
2018-03-04T01:53:45.367Z,33.20
2018-03-04T01:54:07.439Z,33.20
2018-03-04T01:54:29.620Z,33.20
2018-03-04T01:54:51.680Z,33.30
2018-03-04T01:55:13.741Z,33.20
2018-03-04T01:55:35.811Z,33.20
2018-03-04T01:55:57.871Z,33.10
2018-03-04T01:56:19.964Z,33.10
2018-03-04T01:56:42.794Z,33.10
2018-03-04T01:57:05.677Z,33.20
2018-03-04T01:57:27.780Z,33.70
2018-03-04T01:57:49.854Z,33.10
2018-03-04T01:58:11.943Z,33.10
2018-03-04T01:58:33.999Z,33.10
2018-03-04T01:58:56.828Z,33.20
2018-03-04T01:59:18.905Z,33.10
2018-03-04T01:59:40.970Z,32.70
2018-03-04T02:00:03.798Z,33.20
2018-03-04T02:00:25.869Z,33.20
2018-03-04T02:00:47.966Z,33.20
2018-03-04T02:01:10.051Z,33.20
2018-03-04T02:01:32.118Z,33.20
2018-03-04T02:01:54.186Z,33.20
2018-03-04T02:02:16.271Z,33.20
2018-03-04T02:02:38.369Z,33.80
2018-03-04T02:03:00.424Z,33.20
2018-03-04T02:03:22.502Z,33.20
2018-03-04T02:03:44.580Z,33.20
2018-03-04T02:04:07.411Z,33.20
2018-03-04T02:04:30.250Z,33.10
2018-03-04T02:04:53.099Z,33.10
2018-03-04T02:05:15.936Z,33.20
2018-03-04T02:05:38.019Z,33.10
2018-03-04T02:06:00.117Z,33.10
2018-03-04T02:06:22.176Z,33.20
2018-03-04T02:06:45.178Z,33.20
2018-03-04T02:07:07.260Z,33.20
2018-03-04T02:07:29.312Z,33.20
2018-03-04T02:07:51.419Z,33.20
2018-03-04T02:08:13.475Z,33.20
2018-03-04T02:08:35.539Z,33.10
2018-03-04T02:08:57.618Z,33.10
2018-03-04T02:09:20.458Z,33.20
2018-03-04T02:09:43.293Z,33.20
2018-03-04T02:10:06.118Z,33.30
2018-03-04T02:10:28.960Z,33.10
2018-03-04T02:10:51.818Z,33.10
2018-03-04T02:11:13.881Z,33.80
2018-03-04T02:11:35.947Z,33.10
2018-03-04T02:11:58.038Z,33.10
2018-03-04T02:12:20.117Z,33.10
2018-03-04T02:12:42.177Z,33.10
2018-03-04T02:13:04.275Z,33.10
2018-03-04T02:13:26.341Z,33.10
2018-03-04T02:13:48.424Z,33.10
2018-03-04T02:14:10.478Z,33.10
2018-03-04T02:14:32.543Z,33.10
2018-03-04T02:14:54.604Z,33.10
2018-03-04T02:15:17.424Z,33.10
2018-03-04T02:15:40.266Z,33.10
2018-03-04T02:16:03.096Z,33.10
2018-03-04T02:16:25.934Z,33.20
2018-03-04T02:16:48.773Z,33.10
2018-03-04T02:17:11.597Z,33.10
2018-03-04T02:17:34.428Z,33.80
2018-03-04T02:17:56.492Z,33.10
2018-03-04T02:18:18.606Z,33.10
2018-03-04T02:18:40.689Z,33.10
2018-03-04T02:19:03.521Z,33.20
2018-03-04T02:19:26.362Z,33.10
2018-03-04T02:19:49.223Z,33.10
2018-03-04T02:20:11.272Z,33.10
2018-03-04T02:20:33.354Z,33.10
2018-03-04T02:20:55.450Z,33.10
2018-03-04T02:21:18.289Z,33.10
2018-03-04T02:21:41.254Z,33.10
2018-03-04T02:22:03.302Z,33.10
2018-03-04T02:22:25.363Z,33.10
2018-03-04T02:22:48.198Z,33.10
2018-03-04T02:23:11.051Z,33.10
2018-03-04T02:23:33.165Z,33.10
2018-03-04T02:23:55.246Z,33.10
2018-03-04T02:24:17.340Z,33.10
2018-03-04T02:24:39.403Z,33.10
2018-03-04T02:25:02.221Z,33.10
2018-03-04T02:25:24.281Z,33.10
2018-03-04T02:25:46.349Z,33.10
2018-03-04T02:26:08.413Z,33.10
2018-03-04T02:26:30.584Z,33.10
2018-03-04T02:26:52.651Z,33.10
2018-03-04T02:27:14.731Z,33.10
2018-03-04T02:27:36.963Z,33.10
2018-03-04T02:27:59.804Z,33.10
2018-03-04T02:28:22.714Z,33.10
2018-03-04T02:28:44.811Z,33.10
2018-03-04T02:29:06.897Z,33.10
2018-03-04T02:29:29.073Z,33.10
2018-03-04T02:29:51.138Z,33.10
2018-03-04T02:30:13.194Z,33.10
2018-03-04T02:30:35.307Z,33.10
2018-03-04T02:30:57.373Z,33.10
2018-03-04T02:31:19.556Z,33.10
2018-03-04T02:31:41.687Z,33.10
2018-03-04T02:32:03.743Z,33.10
2018-03-04T02:32:25.824Z,33.00
2018-03-04T02:32:48.071Z,33.00
2018-03-04T02:33:10.140Z,33.10
2018-03-04T02:33:32.222Z,33.00
2018-03-04T02:33:54.374Z,33.10
2018-03-04T02:34:16.437Z,33.10
2018-03-04T02:34:39.253Z,33.10
2018-03-04T02:35:01.318Z,33.10
2018-03-04T02:35:23.430Z,33.40
2018-03-04T02:35:45.487Z,33.10
2018-03-04T02:36:07.557Z,33.10
2018-03-04T02:36:29.660Z,33.10
2018-03-04T02:36:52.481Z,33.10
2018-03-04T02:37:15.310Z,33.10
2018-03-04T02:37:38.158Z,33.10
2018-03-04T02:38:00.993Z,33.10
2018-03-04T02:38:23.941Z,33.10
2018-03-04T02:38:46.036Z,33.10
2018-03-04T02:39:08.179Z,33.00
2018-03-04T02:39:31.193Z,33.10
2018-03-04T02:39:53.254Z,33.00
2018-03-04T02:40:15.318Z,33.10
2018-03-04T02:40:37.571Z,33.10
2018-03-04T02:41:00.398Z,33.00
2018-03-04T02:41:23.299Z,33.00
2018-03-04T02:41:45.358Z,32.90
2018-03-04T02:42:08.197Z,32.90
2018-03-04T02:42:31.040Z,33.00
2018-03-04T02:42:53.109Z,33.00
2018-03-04T02:43:15.174Z,33.00
2018-03-04T02:43:37.237Z,33.00
2018-03-04T02:43:59.328Z,33.00
2018-03-04T02:44:21.493Z,32.90
2018-03-04T02:44:43.582Z,32.90
2018-03-04T02:45:05.646Z,33.00
2018-03-04T02:45:28.481Z,33.00
2018-03-04T02:45:51.324Z,33.00
2018-03-04T02:46:14.147Z,33.00
2018-03-04T02:46:36.999Z,33.40
2018-03-04T02:46:59.080Z,33.00
2018-03-04T02:47:21.374Z,33.00
2018-03-04T02:47:43.444Z,33.00
2018-03-04T02:48:06.285Z,33.00
2018-03-04T02:48:29.209Z,33.00
2018-03-04T02:48:51.260Z,33.00
2018-03-04T02:49:13.383Z,33.70
2018-03-04T02:49:35.504Z,33.00
2018-03-04T02:49:57.563Z,33.00
2018-03-04T02:50:19.659Z,33.00
2018-03-04T02:50:41.807Z,33.00
2018-03-04T02:51:03.886Z,32.90
2018-03-04T02:51:26.003Z,33.10
2018-03-04T02:51:48.197Z,33.00
2018-03-04T02:52:10.268Z,33.00
2018-03-04T02:52:32.326Z,33.00
2018-03-04T02:52:54.410Z,33.00
2018-03-04T02:53:17.278Z,33.00
2018-03-04T02:53:40.114Z,32.90
2018-03-04T02:54:03.134Z,32.90
2018-03-04T02:54:25.264Z,32.80
2018-03-04T02:54:48.133Z,32.90
2018-03-04T02:55:10.222Z,32.90
2018-03-04T02:55:33.057Z,32.90
2018-03-04T02:55:55.884Z,32.90
2018-03-04T02:56:17.937Z,32.90
2018-03-04T02:56:40.015Z,32.90
2018-03-04T02:57:02.841Z,33.30
2018-03-04T02:57:24.901Z,32.80
2018-03-04T02:57:47.089Z,32.80
2018-03-04T02:58:09.157Z,32.80
2018-03-04T02:58:31.234Z,32.90
2018-03-04T02:58:54.084Z,32.90
2018-03-04T02:59:16.287Z,32.90
2018-03-04T02:59:39.149Z,32.90
2018-03-04T03:00:01.514Z,32.90
2018-03-04T03:00:23.577Z,32.80
2018-03-04T03:00:46.594Z,32.90
2018-03-04T03:01:08.653Z,32.90
2018-03-04T03:01:30.717Z,32.90
2018-03-04T03:01:52.771Z,32.80
2018-03-04T03:02:14.845Z,32.80
2018-03-04T03:02:37.236Z,32.90
2018-03-04T03:02:59.313Z,32.80
2018-03-04T03:03:22.266Z,33.20
2018-03-04T03:03:45.105Z,32.80
2018-03-04T03:04:07.266Z,32.80
2018-03-04T03:04:29.327Z,32.80
2018-03-04T03:04:52.154Z,32.80
2018-03-04T03:05:14.312Z,32.80
2018-03-04T03:05:36.538Z,32.80
2018-03-04T03:05:58.612Z,32.80
2018-03-04T03:06:20.707Z,32.80
2018-03-04T03:06:42.780Z,32.80
2018-03-04T03:07:04.974Z,32.80
2018-03-04T03:07:27.803Z,32.80
2018-03-04T03:07:50.624Z,32.80
2018-03-04T03:08:12.690Z,32.80
2018-03-04T03:08:34.766Z,32.80
2018-03-04T03:08:57.042Z,32.80
2018-03-04T03:09:19.121Z,32.80
2018-03-04T03:09:41.957Z,32.80
2018-03-04T03:10:04.791Z,32.80
2018-03-04T03:10:27.656Z,32.80
2018-03-04T03:10:49.733Z,32.80
2018-03-04T03:11:11.791Z,32.80
2018-03-04T03:11:33.857Z,32.80
2018-03-04T03:11:56.049Z,32.90
2018-03-04T03:12:18.125Z,32.80
2018-03-04T03:12:40.963Z,32.90
2018-03-04T03:13:03.802Z,32.90
2018-03-04T03:13:25.892Z,32.80
2018-03-04T03:13:48.739Z,32.90
2018-03-04T03:14:11.566Z,32.80
2018-03-04T03:14:33.636Z,32.80
2018-03-04T03:14:55.717Z,32.20
2018-03-04T03:15:17.837Z,32.80
2018-03-04T03:15:40.694Z,33.10
2018-03-04T03:16:02.755Z,32.80
2018-03-04T03:16:24.822Z,32.80
2018-03-04T03:16:47.055Z,32.80
2018-03-04T03:17:09.118Z,32.80
2018-03-04T03:17:31.166Z,32.80
2018-03-04T03:17:53.993Z,32.80
2018-03-04T03:18:17.076Z,32.90
2018-03-04T03:18:39.127Z,32.80
2018-03-04T03:19:01.192Z,32.80
2018-03-04T03:19:23.257Z,32.80
2018-03-04T03:19:45.310Z,32.90
2018-03-04T03:20:08.146Z,33.00
2018-03-04T03:20:30.968Z,32.90
2018-03-04T03:20:53.809Z,33.60
2018-03-04T03:21:16.779Z,33.00
2018-03-04T03:21:38.844Z,32.90
2018-03-04T03:22:00.898Z,33.00
2018-03-04T03:22:23.024Z,32.90
2018-03-04T03:22:45.109Z,32.90
2018-03-04T03:23:07.923Z,32.80
2018-03-04T03:23:29.983Z,32.80
2018-03-04T03:23:52.813Z,32.80
2018-03-04T03:24:15.662Z,33.00
2018-03-04T03:24:37.743Z,32.80
2018-03-04T03:24:59.800Z,32.90
2018-03-04T03:25:21.865Z,33.00
2018-03-04T03:25:43.965Z,32.90
2018-03-04T03:26:06.115Z,32.90
2018-03-04T03:26:28.968Z,32.90
2018-03-04T03:26:51.899Z,32.90
2018-03-04T03:27:14.737Z,32.90
2018-03-04T03:27:37.601Z,32.90
2018-03-04T03:27:59.659Z,32.80
2018-03-04T03:28:21.737Z,32.90
2018-03-04T03:28:43.829Z,32.80
2018-03-04T03:29:06.690Z,32.90
2018-03-04T03:29:28.747Z,32.80
2018-03-04T03:29:50.800Z,32.90
2018-03-04T03:30:13.642Z,32.80
2018-03-04T03:30:36.465Z,33.00
2018-03-04T03:30:59.300Z,33.00
2018-03-04T03:31:21.418Z,32.90
2018-03-04T03:31:44.254Z,33.00
2018-03-04T03:32:07.281Z,32.90
2018-03-04T03:32:29.323Z,32.90
2018-03-04T03:32:52.149Z,33.00
2018-03-04T03:33:14.985Z,33.00
2018-03-04T03:33:37.822Z,33.00
2018-03-04T03:34:00.655Z,32.90
2018-03-04T03:34:23.737Z,32.80
2018-03-04T03:34:45.826Z,32.80
2018-03-04T03:35:08.654Z,32.80
2018-03-04T03:35:31.490Z,32.80
2018-03-04T03:35:54.315Z,32.80
2018-03-04T03:36:17.136Z,33.00
2018-03-04T03:36:39.245Z,32.80
2018-03-04T03:37:01.306Z,32.80
2018-03-04T03:37:23.546Z,32.80
2018-03-04T03:37:45.632Z,32.80
2018-03-04T03:38:08.476Z,32.80
2018-03-04T03:38:30.535Z,32.80
2018-03-04T03:38:52.645Z,32.80
2018-03-04T03:39:14.724Z,32.90
2018-03-04T03:39:37.551Z,32.80
2018-03-04T03:40:00.384Z,33.00
2018-03-04T03:40:23.368Z,32.90
2018-03-04T03:40:45.428Z,32.80
2018-03-04T03:41:07.537Z,32.80
2018-03-04T03:41:29.585Z,32.90
2018-03-04T03:41:52.440Z,33.10
2018-03-04T03:42:14.522Z,33.00
2018-03-04T03:42:36.587Z,33.10
2018-03-04T03:42:58.665Z,33.10
2018-03-04T03:43:21.505Z,33.10
2018-03-04T03:43:44.323Z,33.00
2018-03-04T03:44:07.158Z,33.00
2018-03-04T03:44:29.215Z,33.00
2018-03-04T03:44:51.278Z,32.90
2018-03-04T03:45:13.453Z,32.90
2018-03-04T03:45:35.536Z,33.00
2018-03-04T03:45:58.370Z,33.60
2018-03-04T03:46:20.429Z,33.00
2018-03-04T03:46:42.561Z,33.00
2018-03-04T03:47:04.680Z,33.10
2018-03-04T03:47:26.780Z,33.10
2018-03-04T03:47:48.840Z,33.20
2018-03-04T03:48:10.887Z,33.20
2018-03-04T03:48:33.801Z,32.90
2018-03-04T03:48:55.870Z,32.90
2018-03-04T03:49:17.931Z,32.90
2018-03-04T03:49:40.004Z,32.80
2018-03-04T03:50:02.070Z,32.90
2018-03-04T03:50:24.137Z,32.90
2018-03-04T03:50:46.201Z,32.90
2018-03-04T03:51:08.265Z,32.90
2018-03-04T03:51:30.381Z,33.00
2018-03-04T03:51:52.491Z,33.00
2018-03-04T03:52:14.596Z,33.00
2018-03-04T03:52:37.422Z,33.00
2018-03-04T03:52:59.484Z,33.00
2018-03-04T03:53:21.550Z,33.10
2018-03-04T03:53:43.797Z,33.20
2018-03-04T03:54:06.630Z,33.20
2018-03-04T03:54:29.455Z,33.20
2018-03-04T03:54:51.515Z,33.20
2018-03-04T03:55:13.628Z,33.20
2018-03-04T03:55:35.688Z,33.20
2018-03-04T03:55:57.773Z,33.20
2018-03-04T03:56:19.846Z,33.20
2018-03-04T03:56:42.698Z,33.00
2018-03-04T03:57:04.775Z,33.00
2018-03-04T03:57:27.133Z,33.00
2018-03-04T03:57:49.974Z,33.00
2018-03-04T03:58:12.034Z,33.00
2018-03-04T03:58:34.124Z,33.00
2018-03-04T03:58:56.185Z,33.00
2018-03-04T03:59:18.240Z,33.00
2018-03-04T03:59:41.069Z,33.10
2018-03-04T04:00:03.956Z,33.10
2018-03-04T04:00:26.022Z,33.10
2018-03-04T04:00:48.866Z,33.10
2018-03-04T04:01:11.695Z,33.10
2018-03-04T04:01:34.550Z,33.20
2018-03-04T04:01:56.621Z,33.10
2018-03-04T04:02:18.694Z,33.20
2018-03-04T04:02:40.793Z,33.20
2018-03-04T04:03:03.047Z,33.20
2018-03-04T04:03:25.157Z,33.20
2018-03-04T04:03:47.215Z,33.20
2018-03-04T04:04:09.298Z,33.20
2018-03-04T04:04:31.350Z,33.20
2018-03-04T04:04:53.524Z,33.20
2018-03-04T04:05:15.586Z,33.20
2018-03-04T04:05:37.656Z,33.20
2018-03-04T04:05:59.831Z,33.20
2018-03-04T04:06:21.876Z,33.20
2018-03-04T04:06:44.706Z,33.20
2018-03-04T04:07:07.532Z,33.20
2018-03-04T04:07:30.372Z,33.20
2018-03-04T04:07:53.348Z,33.20
2018-03-04T04:08:15.410Z,33.10
2018-03-04T04:08:37.480Z,33.00
2018-03-04T04:08:59.546Z,33.10
2018-03-04T04:09:21.654Z,33.20
2018-03-04T04:09:43.884Z,33.20
2018-03-04T04:10:05.934Z,33.10
2018-03-04T04:10:27.991Z,33.00
2018-03-04T04:10:50.044Z,33.10
2018-03-04T04:11:12.862Z,33.20
2018-03-04T04:11:34.946Z,33.20
2018-03-04T04:11:57.018Z,33.10
2018-03-04T04:12:19.854Z,33.00
2018-03-04T04:12:42.736Z,33.00
2018-03-04T04:13:04.890Z,33.00
2018-03-04T04:13:26.935Z,32.90
2018-03-04T04:13:49.839Z,33.00
2018-03-04T04:14:11.913Z,32.90
2018-03-04T04:14:34.037Z,32.80
2018-03-04T04:14:56.104Z,32.80
2018-03-04T04:15:18.242Z,32.80
2018-03-04T04:15:41.082Z,32.70
2018-03-04T04:16:03.916Z,32.80
2018-03-04T04:16:26.749Z,32.80
2018-03-04T04:16:49.575Z,32.70
2018-03-04T04:17:12.410Z,32.80
2018-03-04T04:17:35.242Z,33.00
2018-03-04T04:17:58.179Z,33.10
2018-03-04T04:18:20.261Z,33.00
2018-03-04T04:18:42.330Z,32.90
2018-03-04T04:19:05.163Z,33.00
2018-03-04T04:19:28.005Z,32.90
2018-03-04T04:19:50.066Z,32.90
2018-03-04T04:20:12.141Z,32.80
2018-03-04T04:20:34.200Z,32.80
2018-03-04T04:20:56.270Z,32.70
2018-03-04T04:21:19.107Z,32.70
2018-03-04T04:21:41.949Z,32.90
2018-03-04T04:22:04.010Z,32.90
2018-03-04T04:22:26.069Z,33.00
2018-03-04T04:22:48.911Z,32.80
2018-03-04T04:23:11.744Z,32.80
2018-03-04T04:23:34.614Z,32.80
2018-03-04T04:23:56.673Z,32.70
2018-03-04T04:24:18.726Z,32.70
2018-03-04T04:24:40.820Z,32.80
2018-03-04T04:25:03.734Z,32.80
2018-03-04T04:25:25.801Z,32.80
2018-03-04T04:25:47.869Z,32.70
2018-03-04T04:26:09.959Z,32.70
2018-03-04T04:26:32.015Z,32.70
2018-03-04T04:26:54.085Z,32.70
2018-03-04T04:27:16.145Z,32.70
2018-03-04T04:27:38.237Z,32.70
2018-03-04T04:28:00.315Z,32.70
2018-03-04T04:28:23.143Z,32.70
2018-03-04T04:28:46.073Z,32.80
2018-03-04T04:29:08.896Z,32.80
2018-03-04T04:29:30.964Z,32.70
2018-03-04T04:29:53.018Z,32.70
2018-03-04T04:30:15.096Z,32.70
2018-03-04T04:30:37.335Z,32.70
2018-03-04T04:30:59.386Z,32.70
2018-03-04T04:31:22.533Z,32.80
2018-03-04T04:31:45.353Z,33.10
2018-03-04T04:32:07.478Z,32.90
2018-03-04T04:32:29.598Z,32.90
2018-03-04T04:32:51.664Z,33.00
2018-03-04T04:33:13.729Z,33.00
2018-03-04T04:33:35.813Z,33.00
2018-03-04T04:33:57.901Z,32.80
2018-03-04T04:34:19.977Z,32.80
2018-03-04T04:34:42.038Z,32.80
2018-03-04T04:35:04.251Z,32.80
2018-03-04T04:35:27.082Z,32.60
2018-03-04T04:35:50.562Z,32.70
2018-03-04T04:36:12.595Z,32.70
2018-03-04T04:36:34.670Z,32.80
2018-03-04T04:36:57.635Z,33.00
2018-03-04T04:37:19.787Z,33.00
2018-03-04T04:37:41.853Z,32.80
2018-03-04T04:38:03.914Z,32.70
2018-03-04T04:38:25.979Z,32.70
2018-03-04T04:38:48.814Z,32.80
2018-03-04T04:39:11.684Z,32.70
2018-03-04T04:39:33.769Z,32.70
2018-03-04T04:39:56.596Z,32.70
2018-03-04T04:40:19.564Z,32.60
2018-03-04T04:40:41.624Z,32.60
2018-03-04T04:41:03.728Z,32.70
2018-03-04T04:41:25.872Z,32.60
2018-03-04T04:41:47.980Z,32.70
2018-03-04T04:42:10.053Z,32.60
2018-03-04T04:42:32.216Z,32.60
2018-03-04T04:42:54.278Z,32.60
2018-03-04T04:43:16.337Z,32.60
2018-03-04T04:43:38.485Z,32.50
2018-03-04T04:44:00.552Z,32.50
2018-03-04T04:44:22.674Z,33.20
2018-03-04T04:44:44.720Z,32.60
2018-03-04T04:45:06.781Z,32.60
2018-03-04T04:45:28.862Z,32.60
2018-03-04T04:45:50.922Z,32.60
2018-03-04T04:46:12.989Z,32.60
2018-03-04T04:46:35.061Z,32.60
2018-03-04T04:46:57.239Z,32.60
2018-03-04T04:47:19.316Z,32.70